sensor_id;sensor_type;location;lat;lon;timestamp;pressure;altitude;pressure_sealevel;temperature;humidity
68508;BME280;55510;49.560;19.090;2024-01-06T06:05:40;95285.59;;;3.13;100.00
68508;BME280;55510;49.560;19.090;2024-01-06T06:08:42;95293.63;;;3.30;100.00
68508;BME280;55510;49.560;19.090;2024-01-06T06:11:43;95292.31;;;3.39;100.00
68508;BME280;55510;49.560;19.090;2024-01-06T06:14:43;95298.16;;;3.53;100.00
68508;BME280;55510;49.560;19.090;2024-01-06T06:17:44;95300.84;;;3.77;100.00
68508;BME280;55510;49.560;19.090;2024-01-06T06:20:45;95308.63;;;3.72;100.00
68508;BME280;55510;49.560;19.090;2024-01-06T06:23:45;95304.13;;;3.72;100.00
68508;BME280;55510;49.560;19.090;2024-01-06T06:26:46;95304.25;;;3.66;100.00
68508;BME280;55510;49.560;19.090;2024-01-06T06:29:47;95304.25;;;3.66;100.00
68508;BME280;55510;49.560;19.090;2024-01-06T06:32:48;95306.06;;;3.65;100.00
68508;BME280;55510;49.560;19.090;2024-01-06T06:35:48;95306.56;;;3.74;100.00
68508;BME280;55510;49.560;19.090;2024-01-06T06:38:49;95315.59;;;3.78;100.00
68508;BME280;55510;49.560;19.090;2024-01-06T06:41:50;95315.59;;;3.78;100.00
68508;BME280;55510;49.560;19.090;2024-01-06T06:44:51;95322.72;;;3.89;100.00
68508;BME280;55510;49.560;19.090;2024-01-06T06:47:51;95318.13;;;3.97;100.00
68508;BME280;55510;49.560;19.090;2024-01-06T06:50:52;95320.44;;;4.05;100.00
68508;BME280;55510;49.560;19.090;2024-01-06T06:53:52;95326.63;;;4.11;100.00
68508;BME280;55510;49.560;19.090;2024-01-06T06:56:53;95323.44;;;4.20;100.00
68508;BME280;55510;49.560;19.090;2024-01-06T06:59:54;95321.00;;;4.19;100.00
68508;BME280;55510;49.560;19.090;2024-01-06T07:02:55;95318.38;;;4.31;100.00
68508;BME280;55510;49.560;19.090;2024-01-06T07:05:55;95318.84;;;4.28;100.00
68508;BME280;55510;49.560;19.090;2024-01-06T07:08:56;95315.16;;;4.29;100.00
68508;BME280;55510;49.560;19.090;2024-01-06T07:11:57;95311.84;;;4.33;100.00
68508;BME280;55510;49.560;19.090;2024-01-06T07:14:58;95314.25;;;4.35;100.00
68508;BME280;55510;49.560;19.090;2024-01-06T07:18:02;95306.59;;;4.21;100.00
68508;BME280;55510;49.560;19.090;2024-01-06T07:21:06;95315.75;;;4.31;100.00
68508;BME280;55510;49.560;19.090;2024-01-06T07:24:09;95317.22;;;4.39;100.00
68508;BME280;55510;49.560;19.090;2024-01-06T07:27:10;95318.25;;;4.49;100.00
68508;BME280;55510;49.560;19.090;2024-01-06T07:30:11;95321.09;;;4.60;100.00
68508;BME280;55510;49.560;19.090;2024-01-06T07:33:12;95318.97;;;4.86;100.00
68508;BME280;55510;49.560;19.090;2024-01-06T07:36:13;95319.72;;;4.69;100.00
68508;BME280;55510;49.560;19.090;2024-01-06T07:39:14;95318.22;;;4.73;100.00
68508;BME280;55510;49.560;19.090;2024-01-06T07:42:14;95319.25;;;4.72;100.00
68508;BME280;55510;49.560;19.090;2024-01-06T07:45:15;95322.66;;;4.85;100.00
68508;BME280;55510;49.560;19.090;2024-01-06T07:48:16;95321.84;;;4.96;100.00
68508;BME280;55510;49.560;19.090;2024-01-06T07:51:17;95332.00;;;5.04;100.00
68508;BME280;55510;49.560;19.090;2024-01-06T07:54:17;95327.31;;;5.06;100.00
68508;BME280;55510;49.560;19.090;2024-01-06T07:57:18;95324.88;;;5.05;100.00
68508;BME280;55510;49.560;19.090;2024-01-06T08:00:19;95324.06;;;5.16;100.00
68508;BME280;55510;49.560;19.090;2024-01-06T08:03:20;95322.69;;;5.14;100.00
68508;BME280;55510;49.560;19.090;2024-01-06T08:06:21;95327.03;;;5.20;100.00
68508;BME280;55510;49.560;19.090;2024-01-06T08:09:22;95327.94;;;5.26;100.00
68508;BME280;55510;49.560;19.090;2024-01-06T08:12:23;95325.50;;;5.24;100.00
68508;BME280;55510;49.560;19.090;2024-01-06T08:15:24;95326.97;;;5.32;100.00
68508;BME280;55510;49.560;19.090;2024-01-06T08:18:25;95329.00;;;5.42;100.00
68508;BME280;55510;49.560;19.090;2024-01-06T08:21:26;95340.78;;;5.51;100.00
68508;BME280;55510;49.560;19.090;2024-01-06T08:24:27;95334.00;;;5.26;100.00
68508;BME280;55510;49.560;19.090;2024-01-06T08:27:28;95331.34;;;5.26;100.00
68508;BME280;55510;49.560;19.090;2024-01-06T08:30:28;95333.09;;;5.49;100.00
68508;BME280;55510;49.560;19.090;2024-01-06T08:33:29;95334.16;;;5.65;100.00
68508;BME280;55510;49.560;19.090;2024-01-06T08:36:29;95339.81;;;5.57;100.00
68508;BME280;55510;49.560;19.090;2024-01-06T08:39:30;95343.31;;;5.46;100.00
68508;BME280;55510;49.560;19.090;2024-01-06T08:42:31;95338.88;;;5.63;100.00
68508;BME280;55510;49.560;19.090;2024-01-06T08:45:31;95338.09;;;5.63;100.00
68508;BME280;55510;49.560;19.090;2024-01-06T08:48:32;95340.94;;;5.61;100.00
68508;BME280;55510;49.560;19.090;2024-01-06T08:51:33;95344.25;;;5.69;100.00
68508;BME280;55510;49.560;19.090;2024-01-06T08:54:33;95336.03;;;5.82;100.00
68508;BME280;55510;49.560;19.090;2024-01-06T08:57:35;95346.25;;;5.78;100.00
68508;BME280;55510;49.560;19.090;2024-01-06T09:00:35;95347.72;;;5.86;100.00
68508;BME280;55510;49.560;19.090;2024-01-06T09:03:36;95344.69;;;5.94;100.00
68508;BME280;55510;49.560;19.090;2024-01-06T09:06:37;95351.13;;;6.16;100.00
68508;BME280;55510;49.560;19.090;2024-01-06T09:09:38;95339.16;;;6.30;100.00
68508;BME280;55510;49.560;19.090;2024-01-06T09:12:38;95342.13;;;6.34;100.00
68508;BME280;55510;49.560;19.090;2024-01-06T09:15:39;95346.22;;;6.24;100.00
68508;BME280;55510;49.560;19.090;2024-01-06T09:18:40;95343.72;;;6.35;100.00
68508;BME280;55510;49.560;19.090;2024-01-06T09:21:41;95341.78;;;6.47;100.00
68508;BME280;55510;49.560;19.090;2024-01-06T09:24:43;95338.13;;;6.31;100.00
68508;BME280;55510;49.560;19.090;2024-01-06T09:27:44;95339.41;;;6.29;100.00
68508;BME280;55510;49.560;19.090;2024-01-06T09:30:45;95338.31;;;6.24;100.00
68508;BME280;55510;49.560;19.090;2024-01-06T09:33:45;95334.56;;;6.20;100.00
68508;BME280;55510;49.560;19.090;2024-01-06T09:36:46;95342.56;;;6.26;100.00
68508;BME280;55510;49.560;19.090;2024-01-06T09:39:47;95343.09;;;6.28;100.00
68508;BME280;55510;49.560;19.090;2024-01-06T09:42:51;95341.03;;;6.30;100.00
68508;BME280;55510;49.560;19.090;2024-01-06T09:46:06;95343.19;;;6.33;100.00
68508;BME280;55510;49.560;19.090;2024-01-06T09:49:08;95340.06;;;6.36;100.00
68508;BME280;55510;49.560;19.090;2024-01-06T09:52:14;95342.75;;;6.41;100.00
68508;BME280;55510;49.560;19.090;2024-01-06T09:55:24;95346.44;;;6.40;100.00
68508;BME280;55510;49.560;19.090;2024-01-06T09:58:28;95337.34;;;6.31;100.00
68508;BME280;55510;49.560;19.090;2024-01-06T10:01:33;95340.34;;;6.39;100.00
68508;BME280;55510;49.560;19.090;2024-01-06T10:04:34;95342.75;;;6.41;100.00
68508;BME280;55510;49.560;19.090;2024-01-06T10:07:34;95344.19;;;6.49;100.00
68508;BME280;55510;49.560;19.090;2024-01-06T10:10:37;95339.78;;;6.55;100.00
68508;BME280;55510;49.560;19.090;2024-01-06T10:13:38;95343.94;;;6.50;100.00
68508;BME280;55510;49.560;19.090;2024-01-06T10:16:39;95346.25;;;6.64;100.00
68508;BME280;55510;49.560;19.090;2024-01-06T10:19:39;95345.22;;;6.65;100.00
68508;BME280;55510;49.560;19.090;2024-01-06T10:22:41;95337.28;;;6.65;100.00
68508;BME280;55510;49.560;19.090;2024-01-06T10:25:42;95333.41;;;6.73;100.00
68508;BME280;55510;49.560;19.090;2024-01-06T10:28:43;95331.56;;;6.73;100.00
68508;BME280;55510;49.560;19.090;2024-01-06T10:31:43;95332.41;;;6.79;100.00
68508;BME280;55510;49.560;19.090;2024-01-06T10:34:44;95339.50;;;6.73;100.00
68508;BME280;55510;49.560;19.090;2024-01-06T10:37:46;95329.28;;;6.82;100.00
68508;BME280;55510;49.560;19.090;2024-01-06T10:41:00;95329.47;;;6.75;100.00
68508;BME280;55510;49.560;19.090;2024-01-06T10:44:07;95331.72;;;6.44;100.00
68508;BME280;55510;49.560;19.090;2024-01-06T10:47:08;95326.41;;;6.44;100.00
68508;BME280;55510;49.560;19.090;2024-01-06T10:50:10;95330.25;;;6.53;100.00
68508;BME280;55510;49.560;19.090;2024-01-06T10:53:11;95321.88;;;6.62;100.00
68508;BME280;55510;49.560;19.090;2024-01-06T10:56:13;95318.69;;;6.60;100.00
68508;BME280;55510;49.560;19.090;2024-01-06T10:59:15;95316.75;;;6.72;100.00
68508;BME280;55510;49.560;19.090;2024-01-06T11:02:16;95313.06;;;6.95;100.00
68508;BME280;55510;49.560;19.090;2024-01-06T11:05:17;95317.00;;;6.93;100.00
68508;BME280;55510;49.560;19.090;2024-01-06T11:08:17;95310.22;;;7.02;100.00
68508;BME280;55510;49.560;19.090;2024-01-06T11:11:19;95305.47;;;7.04;100.00
68508;BME280;55510;49.560;19.090;2024-01-06T11:17:54;95302.75;;;7.21;100.00
68508;BME280;55510;49.560;19.090;2024-01-06T11:24:19;95299.06;;;7.22;100.00
68508;BME280;55510;49.560;19.090;2024-01-06T11:27:27;95293.03;;;7.27;100.00
68508;BME280;55510;49.560;19.090;2024-01-06T11:30:31;95296.72;;;7.26;100.00
68508;BME280;55510;49.560;19.090;2024-01-06T11:33:41;95292.47;;;7.25;100.00
68508;BME280;55510;49.560;19.090;2024-01-06T11:36:48;95297.22;;;7.23;100.00
68508;BME280;55510;49.560;19.090;2024-01-06T11:39:50;95292.16;;;7.21;100.00
68508;BME280;55510;49.560;19.090;2024-01-06T11:43:01;95287.28;;;7.35;100.00
68508;BME280;55510;49.560;19.090;2024-01-06T11:46:05;95288.84;;;7.31;100.00
68508;BME280;55510;49.560;19.090;2024-01-06T11:49:09;95289.66;;;7.32;100.00
68508;BME280;55510;49.560;19.090;2024-01-06T11:52:10;95284.69;;;7.40;100.00
68508;BME280;55510;49.560;19.090;2024-01-06T11:55:12;95288.22;;;7.51;100.00
68508;BME280;55510;49.560;19.090;2024-01-06T11:58:13;95297.47;;;7.49;100.00
68508;BME280;55510;49.560;19.090;2024-01-06T12:01:16;95300.38;;;7.47;100.00
68508;BME280;55510;49.560;19.090;2024-01-06T12:04:17;95289.47;;;7.44;100.00
68508;BME280;55510;49.560;19.090;2024-01-06T12:07:19;95286.56;;;7.40;100.00
68508;BME280;55510;49.560;19.090;2024-01-06T12:10:21;95292.84;;;7.34;100.00
68508;BME280;55510;49.560;19.090;2024-01-06T12:13:22;95288.53;;;7.28;100.00
68508;BME280;55510;49.560;19.090;2024-01-06T12:16:23;95278.09;;;7.16;100.00
68508;BME280;55510;49.560;19.090;2024-01-06T12:19:31;95281.03;;;7.19;100.00
68508;BME280;55510;49.560;19.090;2024-01-06T12:22:32;95285.28;;;7.20;100.00
68508;BME280;55510;49.560;19.090;2024-01-06T12:25:34;95281.84;;;7.20;100.00
68508;BME280;55510;49.560;19.090;2024-01-06T12:28:36;95282.91;;;7.19;100.00
68508;BME280;55510;49.560;19.090;2024-01-06T12:31:37;95286.59;;;7.18;100.00
68508;BME280;55510;49.560;19.090;2024-01-06T12:34:39;95287.69;;;7.22;100.00
68508;BME280;55510;49.560;19.090;2024-01-06T12:37:41;95284.00;;;7.23;100.00
68508;BME280;55510;49.560;19.090;2024-01-06T12:40:42;95284.44;;;7.15;100.00
68508;BME280;55510;49.560;19.090;2024-01-06T12:43:43;95284.44;;;7.15;100.00
68508;BME280;55510;49.560;19.090;2024-01-06T12:46:43;95282.34;;;7.17;100.00
68508;BME280;55510;49.560;19.090;2024-01-06T12:49:44;95280.19;;;7.14;100.00
68508;BME280;55510;49.560;19.090;2024-01-06T12:52:46;95277.00;;;7.11;100.00
68508;BME280;55510;49.560;19.090;2024-01-06T12:55:47;95281.44;;;7.06;100.00
68508;BME280;55510;49.560;19.090;2024-01-06T12:58:48;95286.41;;;7.02;100.00
68508;BME280;55510;49.560;19.090;2024-01-06T13:01:48;95279.47;;;6.96;100.00
68508;BME280;55510;49.560;19.090;2024-01-06T13:04:50;95274.66;;;6.93;100.00
68508;BME280;55510;49.560;19.090;2024-01-06T13:07:51;95275.72;;;6.92;100.00
68508;BME280;55510;49.560;19.090;2024-01-06T13:10:51;95283.38;;;6.88;100.00
68508;BME280;55510;49.560;19.090;2024-01-06T13:13:52;95280.63;;;6.83;100.00
68508;BME280;55510;49.560;19.090;2024-01-06T13:16:53;95280.16;;;6.86;100.00
68508;BME280;55510;49.560;19.090;2024-01-06T13:19:54;95284.16;;;6.89;100.00
68508;BME280;55510;49.560;19.090;2024-01-06T13:22:54;95287.84;;;6.88;100.00
68508;BME280;55510;49.560;19.090;2024-01-06T13:25:56;95272.97;;;6.81;100.00
68508;BME280;55510;49.560;19.090;2024-01-06T13:28:58;95278.00;;;6.83;100.00
68508;BME280;55510;49.560;19.090;2024-01-06T13:31:58;95281.81;;;6.70;100.00
68508;BME280;55510;49.560;19.090;2024-01-06T13:34:59;95285.75;;;6.67;100.00
68508;BME280;55510;49.560;19.090;2024-01-06T13:38:05;95288.34;;;6.62;100.00
68508;BME280;55510;49.560;19.090;2024-01-06T13:41:05;95290.59;;;6.53;100.00
68508;BME280;55510;49.560;19.090;2024-01-06T13:44:08;95287.66;;;6.50;100.00
68508;BME280;55510;49.560;19.090;2024-01-06T13:47:08;95284.13;;;6.44;100.00
68508;BME280;55510;49.560;19.090;2024-01-06T13:50:11;95278.72;;;6.34;100.00
68508;BME280;55510;49.560;19.090;2024-01-06T13:53:13;95283.06;;;6.23;100.00
68508;BME280;55510;49.560;19.090;2024-01-06T13:56:14;95288.97;;;6.13;100.00
68508;BME280;55510;49.560;19.090;2024-01-06T13:59:15;95289.94;;;6.07;100.00
68508;BME280;55510;49.560;19.090;2024-01-06T14:02:16;95281.72;;;6.03;100.00
68508;BME280;55510;49.560;19.090;2024-01-06T14:06:28;95295.94;;;5.22;100.00
68508;BME280;55510;49.560;19.090;2024-01-06T14:09:30;95293.84;;;5.24;100.00
68508;BME280;55510;49.560;19.090;2024-01-06T14:12:31;95295.94;;;5.22;100.00
68508;BME280;55510;49.560;19.090;2024-01-06T14:15:32;95303.50;;;5.30;100.00
68508;BME280;55510;49.560;19.090;2024-01-06T14:18:33;95307.94;;;5.30;100.00
68508;BME280;55510;49.560;19.090;2024-01-06T14:21:37;95307.28;;;5.22;100.00
68508;BME280;55510;49.560;19.090;2024-01-06T14:24:37;95317.03;;;5.22;100.00
68508;BME280;55510;49.560;19.090;2024-01-06T14:27:38;95314.31;;;5.17;100.00
68508;BME280;55510;49.560;19.090;2024-01-06T14:30:39;95314.22;;;5.12;100.00
68508;BME280;55510;49.560;19.090;2024-01-06T14:33:40;95322.13;;;5.12;100.00
68508;BME280;55510;49.560;19.090;2024-01-06T14:36:40;95313.19;;;5.13;100.00
68508;BME280;55510;49.560;19.090;2024-01-06T14:39:48;95320.44;;;5.05;100.00
68508;BME280;55510;49.560;19.090;2024-01-06T14:42:50;95318.25;;;5.02;100.00
68508;BME280;55510;49.560;19.090;2024-01-06T14:45:51;95314.41;;;4.93;100.00
68508;BME280;55510;49.560;19.090;2024-01-06T14:48:51;95318.53;;;4.89;100.00
68508;BME280;55510;49.560;19.090;2024-01-06T14:51:53;95325.88;;;4.87;100.00
68508;BME280;55510;49.560;19.090;2024-01-06T14:54:54;95313.13;;;4.84;100.00
68508;BME280;55510;49.560;19.090;2024-01-06T14:57:54;95324.72;;;4.83;100.00
68508;BME280;55510;49.560;19.090;2024-01-06T15:00:56;95327.25;;;4.77;100.00
68508;BME280;55510;49.560;19.090;2024-01-06T15:03:56;95320.38;;;4.76;100.00
68508;BME280;55510;49.560;19.090;2024-01-06T15:06:57;95325.34;;;4.73;100.00
68508;BME280;55510;49.560;19.090;2024-01-06T15:10:00;95326.69;;;4.63;100.00
68508;BME280;55510;49.560;19.090;2024-01-06T15:13:01;95329.78;;;4.60;100.00
68508;BME280;55510;49.560;19.090;2024-01-06T15:16:04;95336.00;;;4.54;100.00
68508;BME280;55510;49.560;19.090;2024-01-06T15:19:05;95330.50;;;4.56;100.00
68508;BME280;55510;49.560;19.090;2024-01-06T15:22:08;95333.41;;;4.42;100.00
68508;BME280;55510;49.560;19.090;2024-01-06T15:25:08;95333.03;;;4.50;100.00
68508;BME280;55510;49.560;19.090;2024-01-06T15:28:10;95331.44;;;4.49;100.00
68508;BME280;55510;49.560;19.090;2024-01-06T15:31:11;95334.06;;;4.49;100.00
68508;BME280;55510;49.560;19.090;2024-01-06T15:34:11;95330.06;;;4.47;100.00
68508;BME280;55510;49.560;19.090;2024-01-06T15:37:12;95334.75;;;4.45;100.00
68508;BME280;55510;49.560;19.090;2024-01-06T15:40:13;95329.94;;;4.42;100.00
68508;BME280;55510;49.560;19.090;2024-01-06T15:43:14;95335.22;;;4.42;100.00
68508;BME280;55510;49.560;19.090;2024-01-06T15:46:14;95337.94;;;4.35;100.00
68508;BME280;55510;49.560;19.090;2024-01-06T15:49:17;95333.59;;;4.29;100.00
68508;BME280;55510;49.560;19.090;2024-01-06T15:52:19;95332.13;;;4.21;100.00
68508;BME280;55510;49.560;19.090;2024-01-06T15:55:21;95338.19;;;4.21;100.00
68508;BME280;55510;49.560;19.090;2024-01-06T15:58:22;95348.97;;;4.08;100.00
68508;BME280;55510;49.560;19.090;2024-01-06T16:01:23;95340.69;;;4.04;100.00
68508;BME280;55510;49.560;19.090;2024-01-06T16:04:24;95346.50;;;3.95;100.00
68508;BME280;55510;49.560;19.090;2024-01-06T16:07:24;95352.03;;;4.05;100.00
68508;BME280;55510;49.560;19.090;2024-01-06T16:10:28;95348.84;;;4.03;100.00
68508;BME280;55510;49.560;19.090;2024-01-06T16:13:28;95344.47;;;3.97;100.00
68508;BME280;55510;49.560;19.090;2024-01-06T16:16:30;95345.38;;;3.90;100.00
68508;BME280;55510;49.560;19.090;2024-01-06T16:19:30;95346.63;;;3.88;100.00
68508;BME280;55510;49.560;19.090;2024-01-06T16:22:31;95349.25;;;3.76;100.00
68508;BME280;55510;49.560;19.090;2024-01-06T16:25:37;95347.84;;;3.73;100.00
68508;BME280;55510;49.560;19.090;2024-01-06T16:28:37;95353.47;;;3.77;100.00
68508;BME280;55510;49.560;19.090;2024-01-06T16:31:38;95350.28;;;3.75;100.00
68508;BME280;55510;49.560;19.090;2024-01-06T16:34:39;95351.88;;;3.76;100.00
68508;BME280;55510;49.560;19.090;2024-01-06T16:37:41;95352.53;;;3.71;100.00
68508;BME280;55510;49.560;19.090;2024-01-06T16:40:42;95356.56;;;3.74;100.00
68508;BME280;55510;49.560;19.090;2024-01-06T16:43:44;95352.91;;;3.75;100.00
68508;BME280;55510;49.560;19.090;2024-01-06T16:46:46;95347.63;;;3.75;100.00
68508;BME280;55510;49.560;19.090;2024-01-06T16:49:47;95349.13;;;3.71;100.00
68508;BME280;55510;49.560;19.090;2024-01-06T16:52:47;95346.69;;;3.69;100.00
68508;BME280;55510;49.560;19.090;2024-01-06T16:55:48;95347.50;;;3.70;100.00
68508;BME280;55510;49.560;19.090;2024-01-06T16:58:49;95350.03;;;3.65;100.00
68508;BME280;55510;49.560;19.090;2024-01-06T17:01:49;95348.63;;;3.62;100.00
68508;BME280;55510;49.560;19.090;2024-01-06T17:04:51;95347.72;;;3.56;100.00
68508;BME280;55510;49.560;19.090;2024-01-06T17:07:51;95354.00;;;3.55;100.00
68508;BME280;55510;49.560;19.090;2024-01-06T17:10:53;95354.59;;;3.57;100.00
68508;BME280;55510;49.560;19.090;2024-01-06T17:13:54;95345.50;;;3.53;100.00
68508;BME280;55510;49.560;19.090;2024-01-06T17:16:55;95358.53;;;3.48;100.00
68508;BME280;55510;49.560;19.090;2024-01-06T17:19:55;95360.94;;;3.50;100.00
68508;BME280;55510;49.560;19.090;2024-01-06T17:22:56;95368.25;;;3.47;100.00
68508;BME280;55510;49.560;19.090;2024-01-06T17:25:57;95363.44;;;3.44;100.00
68508;BME280;55510;49.560;19.090;2024-01-06T17:28:58;95367.44;;;3.47;100.00
68508;BME280;55510;49.560;19.090;2024-01-06T17:31:59;95371.41;;;3.38;100.00
68508;BME280;55510;49.560;19.090;2024-01-06T17:35:00;95361.47;;;3.09;100.00
68508;BME280;55510;49.560;19.090;2024-01-06T17:38:00;95367.53;;;3.10;100.00
68508;BME280;55510;49.560;19.090;2024-01-06T17:41:01;95363.72;;;3.05;100.00
68508;BME280;55510;49.560;19.090;2024-01-06T17:44:02;95360.75;;;3.02;100.00
68508;BME280;55510;49.560;19.090;2024-01-06T17:47:03;95362.09;;;2.93;100.00
68508;BME280;55510;49.560;19.090;2024-01-06T17:50:04;95369.53;;;2.96;100.00
68508;BME280;55510;49.560;19.090;2024-01-06T17:53:06;95362.16;;;2.86;100.00
68508;BME280;55510;49.560;19.090;2024-01-06T17:56:06;95350.91;;;2.79;100.00
68508;BME280;55510;49.560;19.090;2024-01-06T17:59:07;95370.38;;;2.71;100.00
68508;BME280;55510;49.560;19.090;2024-01-06T18:02:08;95369.81;;;2.69;100.00
68508;BME280;55510;49.560;19.090;2024-01-06T18:05:09;95368.53;;;2.53;100.00
68508;BME280;55510;49.560;19.090;2024-01-06T18:08:09;95369.38;;;2.53;100.00
68508;BME280;55510;49.560;19.090;2024-01-06T18:11:10;95365.41;;;2.44;100.00
68508;BME280;55510;49.560;19.090;2024-01-06T18:14:11;95364.81;;;2.42;100.00
68508;BME280;55510;49.560;19.090;2024-01-06T18:17:12;95372.03;;;2.28;100.00
68508;BME280;55510;49.560;19.090;2024-01-06T18:20:12;95370.41;;;2.27;100.00
68508;BME280;55510;49.560;19.090;2024-01-06T18:23:17;95367.66;;;2.22;100.00
68508;BME280;55510;49.560;19.090;2024-01-06T18:26:18;95380.66;;;2.10;100.00
68508;BME280;55510;49.560;19.090;2024-01-06T18:29:18;95377.50;;;2.01;100.00
68508;BME280;55510;49.560;19.090;2024-01-06T18:32:21;95373.06;;;2.01;100.00
68508;BME280;55510;49.560;19.090;2024-01-06T18:35:23;95375.44;;;2.03;100.00
68508;BME280;55510;49.560;19.090;2024-01-06T18:38:23;95375.88;;;2.00;100.00
68508;BME280;55510;49.560;19.090;2024-01-06T18:41:24;95382.69;;;1.82;100.00
68508;BME280;55510;49.560;19.090;2024-01-06T18:44:25;95379.03;;;1.83;100.00
68508;BME280;55510;49.560;19.090;2024-01-06T18:47:26;95372.44;;;1.74;100.00
68508;BME280;55510;49.560;19.090;2024-01-06T18:50:28;95376.50;;;1.70;100.00
68508;BME280;55510;49.560;19.090;2024-01-06T18:53:29;95384.94;;;1.72;100.00
68508;BME280;55510;49.560;19.090;2024-01-06T18:56:30;95389.00;;;1.68;100.00
68508;BME280;55510;49.560;19.090;2024-01-06T18:59:30;95395.34;;;1.60;100.00
68508;BME280;55510;49.560;19.090;2024-01-06T19:02:31;95382.66;;;1.57;100.00
68508;BME280;55510;49.560;19.090;2024-01-06T19:05:32;95386.91;;;1.51;100.00
68508;BME280;55510;49.560;19.090;2024-01-06T19:08:33;95392.41;;;1.43;100.00
68508;BME280;55510;49.560;19.090;2024-01-06T19:11:34;95392.81;;;1.40;100.00
68508;BME280;55510;49.560;19.090;2024-01-06T19:14:34;95390.63;;;1.37;100.00
68508;BME280;55510;49.560;19.090;2024-01-06T19:17:36;95389.81;;;1.29;100.00
68508;BME280;55510;49.560;19.090;2024-01-06T19:20:37;95388.03;;;1.23;100.00
68508;BME280;55510;49.560;19.090;2024-01-06T19:23:39;95384.06;;;1.07;100.00
68508;BME280;55510;49.560;19.090;2024-01-06T19:26:40;95388.72;;;1.12;100.00
68508;BME280;55510;49.560;19.090;2024-01-06T19:29:42;95381.69;;;0.99;100.00
68508;BME280;55510;49.560;19.090;2024-01-06T19:32:44;95392.41;;;0.97;100.00
68508;BME280;55510;49.560;19.090;2024-01-06T19:35:45;95386.16;;;0.85;100.00
68508;BME280;55510;49.560;19.090;2024-01-06T19:38:45;95390.25;;;0.74;100.00
68508;BME280;55510;49.560;19.090;2024-01-06T19:41:46;95384.00;;;0.75;100.00
68508;BME280;55510;49.560;19.090;2024-01-06T19:44:47;95378.59;;;0.70;100.00
68508;BME280;55510;49.560;19.090;2024-01-06T19:47:48;95392.66;;;0.76;100.00
68508;BME280;55510;49.560;19.090;2024-01-06T19:50:49;95393.88;;;0.73;100.00
68508;BME280;55510;49.560;19.090;2024-01-06T19:53:50;95394.06;;;0.71;100.00
68508;BME280;55510;49.560;19.090;2024-01-06T19:56:50;95401.94;;;0.65;100.00
68508;BME280;55510;49.560;19.090;2024-01-06T19:59:52;95399.53;;;0.63;100.00
68508;BME280;55510;49.560;19.090;2024-01-06T20:02:52;95394.50;;;0.62;100.00
68508;BME280;55510;49.560;19.090;2024-01-06T20:05:53;95382.22;;;0.55;100.00
68508;BME280;55510;49.560;19.090;2024-01-06T20:08:54;95392.69;;;0.55;100.00
68508;BME280;55510;49.560;19.090;2024-01-06T20:11:55;95393.34;;;0.51;100.00
68508;BME280;55510;49.560;19.090;2024-01-06T20:14:56;95397.16;;;0.48;100.00
68508;BME280;55510;49.560;19.090;2024-01-06T20:17:58;95385.06;;;0.54;100.00
68508;BME280;55510;49.560;19.090;2024-01-06T20:20:58;95384.06;;;0.55;100.00
68508;BME280;55510;49.560;19.090;2024-01-06T20:23:59;95389.47;;;0.53;100.00
68508;BME280;55510;49.560;19.090;2024-01-06T20:27:03;95387.88;;;0.52;100.00
68508;BME280;55510;49.560;19.090;2024-01-06T20:30:04;95391.50;;;0.51;100.00
68508;BME280;55510;49.560;19.090;2024-01-06T20:33:06;95391.13;;;0.48;100.00
68508;BME280;55510;49.560;19.090;2024-01-06T20:36:07;95392.91;;;0.47;100.00
68508;BME280;55510;49.560;19.090;2024-01-06T20:39:10;95388.28;;;0.42;100.00
68508;BME280;55510;49.560;19.090;2024-01-06T20:42:12;95388.91;;;0.45;100.00
68508;BME280;55510;49.560;19.090;2024-01-06T20:45:13;95391.53;;;0.45;100.00
68508;BME280;55510;49.560;19.090;2024-01-06T20:48:14;95387.50;;;0.49;100.00
68508;BME280;55510;49.560;19.090;2024-01-06T20:51:16;95380.47;;;0.36;100.00
68508;BME280;55510;49.560;19.090;2024-01-06T20:54:18;95381.88;;;0.32;100.00
68508;BME280;55510;49.560;19.090;2024-01-06T20:57:18;95393.13;;;0.32;100.00
68508;BME280;55510;49.560;19.090;2024-01-06T21:00:19;95392.94;;;0.34;100.00
68508;BME280;55510;49.560;19.090;2024-01-06T21:03:20;95382.25;;;0.35;100.00
68508;BME280;55510;49.560;19.090;2024-01-06T21:06:21;95394.16;;;0.45;100.00
68508;BME280;55510;49.560;19.090;2024-01-06T21:09:21;95390.31;;;0.47;100.00
68508;BME280;55510;49.560;19.090;2024-01-06T21:12:25;95384.25;;;0.53;100.00
68508;BME280;55510;49.560;19.090;2024-01-06T21:15:27;95389.28;;;0.55;100.00
68508;BME280;55510;49.560;19.090;2024-01-06T21:18:28;95391.31;;;0.53;100.00
68508;BME280;55510;49.560;19.090;2024-01-06T21:21:29;95405.59;;;0.57;100.00
68508;BME280;55510;49.560;19.090;2024-01-06T21:24:29;95400.19;;;0.52;100.00
68508;BME280;55510;49.560;19.090;2024-01-06T21:27:31;95399.16;;;0.53;100.00
68508;BME280;55510;49.560;19.090;2024-01-06T21:30:34;95397.97;;;0.49;100.00
68508;BME280;55510;49.560;19.090;2024-01-06T21:33:34;95400.78;;;0.47;100.00
68508;BME280;55510;49.560;19.090;2024-01-06T21:36:39;95396.97;;;0.50;100.00
68508;BME280;55510;49.560;19.090;2024-01-06T21:39:40;95403.19;;;0.49;100.00
68508;BME280;55510;49.560;19.090;2024-01-06T21:42:41;95402.38;;;0.48;100.00
68508;BME280;55510;49.560;19.090;2024-01-06T21:45:41;95408.44;;;0.49;100.00
68508;BME280;55510;49.560;19.090;2024-01-06T21:48:42;95409.63;;;0.46;100.00
68508;BME280;55510;49.560;19.090;2024-01-06T21:51:47;95405.59;;;0.43;100.00
68508;BME280;55510;49.560;19.090;2024-01-06T21:54:48;95407.25;;;0.45;100.00
68508;BME280;55510;49.560;19.090;2024-01-06T21:57:48;95404.41;;;0.39;100.00
68508;BME280;55510;49.560;19.090;2024-01-06T22:00:49;95414.28;;;0.37;100.00